createdAt,value
2022-12-17T00:08:59.293Z,14.60
2022-12-17T00:11:48.949Z,12.20
2022-12-17T00:14:38.073Z,13.00
2022-12-17T00:17:27.564Z,12.30
2022-12-17T00:20:17.026Z,15.20
2022-12-17T00:23:06.151Z,14.30
2022-12-17T00:25:55.186Z,13.80
2022-12-17T00:28:40.676Z,13.30
2022-12-17T00:31:29.806Z,14.50
2022-12-17T00:34:21.389Z,14.00
2022-12-17T00:37:10.861Z,13.30
2022-12-17T00:40:00.275Z,15.70
2022-12-17T00:42:50.555Z,15.60
2022-12-17T00:45:39.956Z,17.40
2022-12-17T00:48:29.237Z,13.60
2022-12-17T00:51:18.667Z,13.00
2022-12-17T00:54:08.075Z,11.60
2022-12-17T00:56:57.394Z,12.80
2022-12-17T00:59:46.464Z,14.40
2022-12-17T01:02:35.784Z,13.50
2022-12-17T01:05:26.165Z,14.30
2022-12-17T01:08:15.465Z,16.10
2022-12-17T01:11:15.996Z,12.40
2022-12-17T01:14:04.872Z,11.70
2022-12-17T01:16:53.875Z,13.60
2022-12-17T01:19:45.511Z,12.70
2022-12-17T01:22:34.683Z,12.80
2022-12-17T01:25:24.744Z,11.30
2022-12-17T01:28:14.024Z,16.00
2022-12-17T01:31:03.323Z,14.90
2022-12-17T01:33:54.406Z,12.60
2022-12-17T01:36:43.451Z,12.20
2022-12-17T01:39:33.380Z,14.60
2022-12-17T01:42:22.615Z,11.20
2022-12-17T01:45:13.273Z,11.20
2022-12-17T01:48:03.341Z,13.30
2022-12-17T01:50:53.284Z,14.70
2022-12-17T01:53:43.952Z,10.50
2022-12-17T01:56:33.055Z,14.40
2022-12-17T01:59:22.405Z,13.10
2022-12-17T02:02:11.798Z,12.60
2022-12-17T02:05:01.045Z,14.60
2022-12-17T02:08:01.867Z,10.40
2022-12-17T02:10:53.422Z,10.40
2022-12-17T02:13:48.849Z,21.50
2022-12-17T02:16:39.543Z,10.00
2022-12-17T02:19:35.253Z,11.60
2022-12-17T02:22:31.540Z,15.20
2022-12-17T02:25:24.677Z,13.00
2022-12-17T02:28:22.944Z,10.60
2022-12-17T02:31:12.591Z,9.20
2022-12-17T02:34:01.713Z,10.00
2022-12-17T02:36:54.333Z,14.20
2022-12-17T02:39:43.817Z,11.60
2022-12-17T02:42:32.973Z,10.90
2022-12-17T02:45:23.937Z,10.50
2022-12-17T02:48:13.325Z,11.60
2022-12-17T02:51:02.474Z,9.20
2022-12-17T02:54:07.667Z,12.30
2022-12-17T02:56:56.448Z,12.20
2022-12-17T02:59:46.865Z,8.10
2022-12-17T03:02:38.036Z,7.80
2022-12-17T03:05:44.467Z,8.20
2022-12-17T03:08:34.198Z,10.10
2022-12-17T03:11:24.724Z,11.30
2022-12-17T03:14:25.346Z,10.20
2022-12-17T03:17:28.957Z,10.30
2022-12-17T03:20:18.029Z,16.10
2022-12-17T03:23:07.183Z,8.40
2022-12-17T03:25:56.292Z,9.40
2022-12-17T03:28:45.499Z,10.20
2022-12-17T03:31:35.389Z,9.20
2022-12-17T03:34:24.481Z,8.40
2022-12-17T03:37:13.744Z,9.80
2022-12-17T03:40:03.053Z,10.70
2022-12-17T03:42:51.426Z,9.80
2022-12-17T03:45:40.446Z,12.60
2022-12-17T03:48:31.068Z,12.60
2022-12-17T03:51:20.161Z,9.10
2022-12-17T03:54:09.726Z,10.00
2022-12-17T03:56:58.905Z,14.70
2022-12-17T04:00:03.015Z,9.60
2022-12-17T04:03:01.380Z,11.30
2022-12-17T04:05:50.417Z,10.60
2022-12-17T04:08:39.746Z,13.70
2022-12-17T04:11:29.400Z,11.50
2022-12-17T04:14:27.033Z,11.00
2022-12-17T04:17:16.341Z,8.70
2022-12-17T04:20:08.517Z,9.10
2022-12-17T04:22:57.588Z,9.30
2022-12-17T04:25:46.507Z,12.20
2022-12-17T04:28:35.513Z,17.50
2022-12-17T04:31:24.669Z,8.30
2022-12-17T04:34:16.186Z,10.20
2022-12-17T04:37:05.258Z,9.60
2022-12-17T04:39:54.324Z,10.40
2022-12-17T04:42:43.256Z,8.40
2022-12-17T04:45:32.347Z,12.00
2022-12-17T04:48:25.006Z,8.70
2022-12-17T04:51:14.147Z,7.80
2022-12-17T04:53:59.442Z,7.40
2022-12-17T04:56:49.021Z,10.20
2022-12-17T04:59:38.114Z,10.00
2022-12-17T05:02:27.460Z,11.00
2022-12-17T05:05:16.857Z,10.70
2022-12-17T05:08:06.422Z,10.30
2022-12-17T05:10:55.775Z,10.80
2022-12-17T05:13:45.023Z,8.30
2022-12-17T05:16:34.203Z,13.00
2022-12-17T05:19:25.599Z,10.20
2022-12-17T05:22:14.549Z,8.20
2022-12-17T05:25:03.712Z,9.20
2022-12-17T05:27:52.965Z,10.10
2022-12-17T05:30:42.361Z,9.70
2022-12-17T05:33:31.503Z,11.40
2022-12-17T05:49:21.828Z,6.30
2022-12-17T05:52:10.876Z,7.20
2022-12-17T05:55:00.092Z,10.80
2022-12-17T05:57:53.152Z,14.90
2022-12-17T06:00:46.156Z,8.40
2022-12-17T06:03:36.298Z,8.10
2022-12-17T06:06:26.659Z,10.60
2022-12-17T06:09:16.481Z,9.20
2022-12-17T06:12:05.674Z,9.10
2022-12-17T06:14:54.588Z,11.50
2022-12-17T06:17:43.685Z,10.50
2022-12-17T06:20:32.914Z,11.70
2022-12-17T06:23:22.111Z,12.00
2022-12-17T06:26:12.664Z,9.60
2022-12-17T06:29:01.840Z,10.40
2022-12-17T06:31:51.140Z,12.00
2022-12-17T06:34:40.859Z,18.00
2022-12-17T06:37:31.044Z,11.60
2022-12-17T06:40:20.416Z,12.40
2022-12-17T06:43:15.021Z,12.80
2022-12-17T07:04:27.178Z,10.20
2022-12-17T07:07:18.579Z,11.90
2022-12-17T07:10:12.281Z,8.50
2022-12-17T07:13:03.570Z,12.60
2022-12-17T07:15:53.019Z,15.80
2022-12-17T07:18:42.205Z,11.50
2022-12-17T07:21:31.373Z,14.60
2022-12-17T07:24:20.637Z,12.20
2022-12-17T07:27:09.815Z,10.10
2022-12-17T08:23:36.425Z,14.10
2022-12-17T08:26:26.385Z,13.80
2022-12-17T08:29:15.964Z,12.10
2022-12-17T08:32:10.672Z,14.10
2022-12-17T08:34:59.831Z,13.80
2022-12-17T08:37:49.600Z,13.30
2022-12-17T08:40:39.289Z,16.20
2022-12-17T08:43:29.069Z,13.20
2022-12-17T08:46:18.212Z,12.40
2022-12-17T08:49:07.711Z,14.00
2022-12-17T08:51:56.974Z,14.30
2022-12-17T08:54:46.875Z,13.90
2022-12-17T08:57:36.164Z,12.80
2022-12-17T09:00:27.632Z,15.00
2022-12-17T09:03:18.586Z,15.50
2022-12-17T09:06:08.119Z,13.60
2022-12-17T09:08:57.691Z,12.40
2022-12-17T09:11:47.265Z,16.20
2022-12-17T09:14:36.812Z,14.20
2022-12-17T09:17:26.509Z,12.80
2022-12-17T09:20:16.011Z,12.20
2022-12-17T09:23:05.481Z,15.70
2022-12-17T09:25:58.080Z,12.20
2022-12-17T09:28:47.823Z,12.30
2022-12-17T09:31:37.651Z,14.20
2022-12-17T09:34:27.827Z,14.20
2022-12-17T09:37:17.188Z,13.00
2022-12-17T09:40:07.214Z,15.20
2022-12-17T09:43:00.783Z,16.10
2022-12-17T09:45:51.920Z,15.50
2022-12-17T09:48:43.418Z,14.00
2022-12-17T09:51:40.475Z,15.40
2022-12-17T09:54:35.318Z,14.30
2022-12-17T09:57:25.173Z,15.40
2022-12-17T10:00:14.202Z,13.30
2022-12-17T10:03:03.396Z,13.50
2022-12-17T10:05:53.066Z,14.00
2022-12-17T10:08:42.448Z,15.70
2022-12-17T10:11:42.244Z,15.30
2022-12-17T10:14:37.401Z,16.00
2022-12-17T10:17:28.218Z,12.80
2022-12-17T10:20:17.323Z,17.00
2022-12-17T10:23:07.795Z,13.70
2022-12-17T10:25:56.877Z,13.70
2022-12-17T10:28:47.166Z,14.40
2022-12-17T10:31:39.168Z,16.10
2022-12-17T10:34:31.250Z,13.20
2022-12-17T10:40:15.490Z,14.90
2022-12-17T10:43:04.663Z,14.90
2022-12-17T10:45:54.379Z,16.80
2022-12-17T10:48:48.755Z,13.50
2022-12-17T10:51:43.549Z,14.00
2022-12-17T10:54:45.422Z,13.00
2022-12-17T10:57:45.824Z,13.70
2022-12-17T11:00:52.199Z,14.60
2022-12-17T11:04:05.985Z,15.40
2022-12-17T11:06:56.627Z,15.10
2022-12-17T11:09:57.685Z,13.80
2022-12-17T11:12:50.116Z,13.20
2022-12-17T11:15:41.765Z,14.60
2022-12-17T11:18:34.482Z,12.40
2022-12-17T11:21:26.631Z,14.20
2022-12-17T11:24:22.022Z,14.10
2022-12-17T11:27:12.318Z,11.90
2022-12-17T11:30:01.271Z,13.30
2022-12-17T11:33:00.530Z,12.30
2022-12-17T11:35:51.750Z,12.60
2022-12-17T11:38:48.540Z,12.10
2022-12-17T11:41:40.297Z,12.90
2022-12-17T11:44:33.094Z,14.00
2022-12-17T11:47:26.954Z,12.60
2022-12-17T11:50:18.084Z,12.50
2022-12-17T11:53:10.482Z,12.50
2022-12-17T11:56:05.257Z,15.60
2022-12-17T11:58:56.243Z,12.40
2022-12-17T12:01:49.219Z,11.60
2022-12-17T12:04:45.070Z,12.60
2022-12-17T12:07:37.586Z,10.90
2022-12-17T12:10:27.398Z,13.20
2022-12-17T12:13:21.014Z,12.00
2022-12-17T12:16:20.758Z,11.90
2022-12-17T12:19:13.516Z,10.90
2022-12-17T12:22:05.263Z,11.00
2022-12-17T12:25:12.747Z,12.70
2022-12-17T12:28:07.628Z,10.90
2022-12-17T12:30:58.832Z,12.70
2022-12-17T12:33:50.669Z,11.70
2022-12-17T12:36:39.933Z,13.00
2022-12-17T12:39:31.255Z,10.90
2022-12-17T12:42:21.499Z,11.00
2022-12-17T12:45:12.848Z,12.70
2022-12-17T12:48:04.637Z,12.40
2022-12-17T12:51:00.865Z,13.40
2022-12-17T12:53:50.058Z,12.40
2022-12-17T12:56:51.934Z,12.80
2022-12-17T12:59:46.712Z,13.00
2022-12-17T13:02:47.120Z,12.70
2022-12-17T13:05:35.517Z,11.90
2022-12-17T13:08:18.468Z,12.20
2022-12-17T13:10:50.213Z,10.80
2022-12-17T13:15:55.462Z,14.90
2022-12-17T13:18:29.482Z,13.10
2022-12-17T13:21:02.550Z,12.60
2022-12-17T13:23:36.059Z,11.60
2022-12-17T13:26:25.165Z,11.80
2022-12-17T13:29:05.336Z,12.10
2022-12-17T13:31:48.619Z,13.80
2022-12-17T13:34:22.476Z,12.70
2022-12-17T13:36:56.231Z,11.80
2022-12-17T13:39:38.131Z,14.20
2022-12-17T13:44:50.592Z,14.10
2022-12-17T13:47:24.551Z,14.50
2022-12-17T13:50:31.547Z,12.60
2022-12-17T13:52:47.932Z,15.10
2022-12-17T13:55:23.052Z,15.70
2022-12-17T13:57:54.675Z,14.90
2022-12-17T14:00:27.492Z,13.10
2022-12-17T14:02:59.495Z,13.80
2022-12-17T14:05:33.517Z,13.40
2022-12-17T14:08:06.172Z,12.40
2022-12-17T14:10:38.413Z,13.80
2022-12-17T14:13:11.824Z,25.90
2022-12-17T14:15:47.446Z,13.30
2022-12-17T14:18:20.216Z,14.30
2022-12-17T14:20:51.624Z,13.00
2022-12-17T14:23:25.620Z,12.50
2022-12-17T14:25:57.045Z,14.40
2022-12-17T14:34:08.567Z,13.30
2022-12-17T14:36:41.922Z,15.10
2022-12-17T14:39:21.183Z,15.70
2022-12-17T14:42:10.527Z,13.10
2022-12-17T14:44:51.849Z,13.90
2022-12-17T14:47:25.181Z,13.80
2022-12-17T14:50:02.625Z,14.10
2022-12-17T14:52:45.285Z,17.20
2022-12-17T14:55:37.100Z,15.10
2022-12-17T14:58:24.689Z,12.70
2022-12-17T15:00:57.219Z,18.80
2022-12-17T15:03:30.039Z,13.50
2022-12-17T15:06:02.446Z,13.00
2022-12-17T15:08:38.392Z,13.80
2022-12-17T15:11:11.335Z,16.20
2022-12-17T15:13:42.769Z,13.80
2022-12-17T15:16:14.368Z,13.50
2022-12-17T15:18:46.034Z,15.00
2022-12-17T15:21:17.602Z,14.70
2022-12-17T15:23:49.014Z,12.90
2022-12-17T15:26:21.550Z,16.00
2022-12-17T15:28:53.201Z,15.30
2022-12-17T15:31:26.150Z,13.20
2022-12-17T15:34:00.991Z,13.30
2022-12-17T15:36:33.395Z,15.00
2022-12-17T15:39:07.224Z,14.30
2022-12-17T15:41:56.299Z,14.00
2022-12-17T15:44:27.968Z,17.00
2022-12-17T15:46:59.385Z,14.70
2022-12-17T15:49:31.057Z,13.40
2022-12-17T15:52:04.118Z,13.60
2022-12-17T15:54:35.966Z,13.00
2022-12-17T15:57:07.696Z,13.00
2022-12-17T16:02:10.866Z,14.30
2022-12-17T16:04:42.756Z,13.60
2022-12-17T16:09:44.212Z,16.50
2022-12-17T16:12:15.722Z,13.30
2022-12-17T16:14:47.220Z,14.70
2022-12-17T16:17:18.572Z,14.80
2022-12-17T16:19:49.859Z,16.60
2022-12-17T16:22:21.323Z,15.90
2022-12-17T16:24:52.946Z,15.50
2022-12-17T16:27:24.752Z,17.20
2022-12-17T16:29:56.315Z,17.40
2022-12-17T16:32:32.933Z,17.00
2022-12-17T16:35:08.281Z,19.70
2022-12-17T16:37:39.661Z,16.10
2022-12-17T16:40:13.364Z,16.30
2022-12-17T16:42:45.063Z,17.60
2022-12-17T16:47:46.386Z,13.70
2022-12-17T16:50:18.209Z,13.60
2022-12-17T16:52:49.647Z,13.40
2022-12-17T16:55:21.224Z,12.50
2022-12-17T16:57:52.874Z,16.00
2022-12-17T17:00:24.422Z,15.00
2022-12-17T17:05:26.240Z,14.20
2022-12-17T17:07:58.006Z,13.40
2022-12-17T17:10:29.607Z,13.70
2022-12-17T17:15:31.074Z,13.70
2022-12-17T17:18:02.667Z,13.20
2022-12-17T17:20:34.168Z,16.00
2022-12-17T17:23:05.648Z,14.20
2022-12-17T17:25:57.758Z,14.30
2022-12-17T17:28:30.760Z,15.30
2022-12-17T17:31:03.395Z,13.70
2022-12-17T17:33:35.802Z,17.30
2022-12-17T17:36:09.001Z,14.60
2022-12-17T17:38:41.683Z,14.10
2022-12-17T17:41:14.372Z,15.80
2022-12-17T17:43:45.779Z,13.70
2022-12-17T17:46:18.338Z,14.40
2022-12-17T17:48:55.259Z,13.10
2022-12-17T17:51:59.730Z,13.70
2022-12-17T17:54:20.846Z,12.60
2022-12-17T17:56:52.390Z,15.00
2022-12-17T17:59:30.916Z,14.40
2022-12-17T18:02:05.332Z,14.60
2022-12-17T18:04:37.018Z,14.70
2022-12-17T18:07:24.926Z,13.40
2022-12-17T18:09:59.990Z,14.40
2022-12-17T18:12:49.400Z,13.40
2022-12-17T18:15:21.043Z,15.10
2022-12-17T18:17:54.293Z,17.50
2022-12-17T18:20:26.063Z,13.80
2022-12-17T18:22:57.458Z,14.80
2022-12-17T18:25:34.186Z,13.30
2022-12-17T18:28:08.668Z,12.80
2022-12-17T18:30:42.435Z,12.70
2022-12-17T18:33:13.817Z,13.00
2022-12-17T18:35:45.370Z,13.80
2022-12-17T18:38:16.724Z,13.60
2022-12-17T18:40:49.635Z,13.90
2022-12-17T18:43:26.959Z,12.40
2022-12-17T18:45:58.572Z,16.40
2022-12-17T18:48:30.202Z,12.80
2022-12-17T18:51:07.478Z,18.00
2022-12-17T18:53:39.099Z,13.50
2022-12-17T18:58:41.907Z,14.70
2022-12-17T19:01:23.843Z,13.60
2022-12-17T19:06:27.695Z,12.80
2022-12-17T19:08:59.259Z,12.90
2022-12-17T19:11:33.901Z,12.00
2022-12-17T19:14:05.440Z,18.00
2022-12-17T19:16:37.102Z,16.00
2022-12-17T19:21:38.532Z,14.70
2022-12-17T19:24:13.458Z,15.00
2022-12-17T19:26:45.304Z,13.40
2022-12-17T19:31:47.467Z,14.90
2022-12-17T19:34:19.927Z,13.90
2022-12-17T19:36:51.414Z,14.70
2022-12-17T19:39:23.205Z,14.10
2022-12-17T19:41:54.964Z,14.80
2022-12-17T19:44:27.345Z,15.50
2022-12-17T19:46:59.185Z,14.20
2022-12-17T19:49:30.862Z,17.10
2022-12-17T19:52:02.225Z,16.50
2022-12-17T19:54:33.831Z,20.20
2022-12-17T19:57:05.742Z,15.00
2022-12-17T19:59:38.552Z,14.30
2022-12-17T20:04:40.426Z,14.70
2022-12-17T20:07:11.879Z,18.30
2022-12-17T20:09:45.583Z,17.40
2022-12-17T20:12:17.094Z,17.30
2022-12-17T20:17:18.790Z,14.40
2022-12-17T20:19:53.523Z,15.30
2022-12-17T20:22:26.675Z,20.00
2022-12-17T20:27:28.297Z,22.40
2022-12-17T20:29:59.689Z,16.50
2022-12-17T20:32:31.528Z,21.20
2022-12-17T20:37:32.967Z,21.70
2022-12-17T20:40:04.426Z,30.60
2022-12-17T20:42:35.970Z,25.20
2022-12-17T20:45:08.370Z,27.80
2022-12-17T20:47:39.826Z,21.90
2022-12-17T20:50:12.650Z,21.40
2022-12-17T20:52:44.106Z,20.90
2022-12-17T20:55:15.511Z,24.90
2022-12-17T20:57:47.134Z,19.30
2022-12-17T21:00:19.395Z,27.40
2022-12-17T21:02:51.800Z,30.90
2022-12-17T21:05:23.528Z,31.90
2022-12-17T21:07:54.865Z,32.30
2022-12-17T21:10:26.490Z,25.70
2022-12-17T21:13:15.621Z,26.50
2022-12-17T21:15:52.441Z,33.00
2022-12-17T21:18:23.894Z,30.50
2022-12-17T21:20:59.591Z,33.50
2022-12-17T21:23:31.084Z,35.40
2022-12-17T21:26:03.870Z,28.00
2022-12-17T21:28:41.742Z,30.10
2022-12-17T21:31:20.761Z,26.90
2022-12-17T21:33:52.593Z,35.70
2022-12-17T21:36:24.294Z,29.20
2022-12-17T21:38:55.787Z,28.50
2022-12-17T21:41:28.176Z,34.50
2022-12-17T21:44:00.253Z,27.50
2022-12-17T21:46:31.907Z,28.50
2022-12-17T21:51:34.004Z,32.00
2022-12-17T21:54:09.003Z,29.40
2022-12-17T21:56:41.634Z,25.90
2022-12-17T21:59:13.518Z,33.30
2022-12-17T22:01:45.057Z,33.40
2022-12-17T22:06:49.132Z,25.50
2022-12-17T22:09:55.217Z,28.50
2022-12-17T22:12:45.809Z,27.20
2022-12-17T22:15:17.206Z,26.50
2022-12-17T22:17:49.432Z,30.10
2022-12-17T22:20:20.890Z,30.00
2022-12-17T22:22:52.363Z,22.40
2022-12-17T22:25:23.978Z,30.20
2022-12-17T22:27:55.579Z,22.90
2022-12-17T22:30:44.803Z,26.00
2022-12-17T22:33:34.536Z,35.40
2022-12-17T22:38:46.880Z,29.30
2022-12-17T22:43:49.338Z,29.60
2022-12-17T22:44:38.823Z,29.10
2022-12-17T22:45:09.326Z,32.70
2022-12-17T22:47:42.317Z,30.30
2022-12-17T22:50:14.037Z,31.00
2022-12-17T22:52:45.868Z,31.00
2022-12-17T22:57:47.753Z,33.50
2022-12-17T23:00:34.690Z,31.40
2022-12-17T23:03:06.339Z,37.20
2022-12-17T23:05:38.126Z,33.10
2022-12-17T23:08:09.604Z,30.80
2022-12-17T23:10:40.988Z,34.80
2022-12-17T23:13:12.385Z,28.40
2022-12-17T23:15:43.872Z,25.20
2022-12-17T23:18:15.750Z,30.80
2022-12-17T23:20:47.165Z,30.90
2022-12-17T23:23:18.558Z,29.20
2022-12-17T23:25:49.885Z,33.70
2022-12-17T23:28:21.209Z,29.70
2022-12-17T23:30:52.655Z,27.30
2022-12-17T23:33:24.213Z,25.70
2022-12-17T23:36:04.421Z,27.10
2022-12-17T23:38:35.952Z,31.60
2022-12-17T23:43:38.420Z,30.40
2022-12-17T23:46:10.423Z,26.30
2022-12-17T23:51:17.477Z,24.10
2022-12-17T23:53:48.989Z,35.20
2022-12-17T23:56:21.177Z,23.90
2022-12-17T23:58:54.741Z,33.00
